sensor_id;sensor_type;location;lat;lon;timestamp;pressure;altitude;pressure_sealevel;temperature;humidity
76074;BME280;64776;42.636;24.358;2023-07-28T00:01:51;90223.03;;;9.45;75.04
76074;BME280;64776;42.636;24.358;2023-07-28T00:04:51;90217.88;;;9.42;75.78
76074;BME280;64776;42.636;24.358;2023-07-28T00:07:52;90218.28;;;9.35;75.18
76074;BME280;64776;42.636;24.358;2023-07-28T00:10:53;90217.34;;;9.38;75.47
76074;BME280;64776;42.636;24.358;2023-07-28T00:17:32;90219.75;;;9.21;75.77
76074;BME280;64776;42.636;24.358;2023-07-28T00:20:32;90217.75;;;9.16;76.63
76074;BME280;64776;42.636;24.358;2023-07-28T00:23:33;90221.97;;;9.08;75.99
76074;BME280;64776;42.636;24.358;2023-07-28T00:26:35;90222.59;;;9.18;75.88
76074;BME280;64776;42.636;24.358;2023-07-28T00:29:36;90222.41;;;9.21;76.71
76074;BME280;64776;42.636;24.358;2023-07-28T00:32:38;90228.94;;;9.20;76.58
76074;BME280;64776;42.636;24.358;2023-07-28T00:35:39;90226.09;;;9.24;76.02
76074;BME280;64776;42.636;24.358;2023-07-28T00:38:40;90220.88;;;9.29;76.67
76074;BME280;64776;42.636;24.358;2023-07-28T00:41:41;90226.81;;;9.39;75.89
76074;BME280;64776;42.636;24.358;2023-07-28T00:44:41;90228.38;;;9.31;76.42
76074;BME280;64776;42.636;24.358;2023-07-28T00:47:44;90219.13;;;9.26;76.96
76074;BME280;64776;42.636;24.358;2023-07-28T00:50:46;90221.03;;;9.26;76.77
76074;BME280;64776;42.636;24.358;2023-07-28T00:53:48;90217.66;;;9.11;77.10
76074;BME280;64776;42.636;24.358;2023-07-28T00:56:49;90215.34;;;9.18;78.23
76074;BME280;64776;42.636;24.358;2023-07-28T00:59:50;90207.44;;;9.24;76.99
76074;BME280;64776;42.636;24.358;2023-07-28T01:02:52;90204.72;;;9.18;76.54
76074;BME280;64776;42.636;24.358;2023-07-28T01:06:00;90207.72;;;9.26;77.19
76074;BME280;64776;42.636;24.358;2023-07-28T01:09:06;90201.09;;;9.36;76.58
76074;BME280;64776;42.636;24.358;2023-07-28T01:12:09;90196.16;;;9.43;76.07
76074;BME280;64776;42.636;24.358;2023-07-28T01:15:10;90196.56;;;9.56;76.08
76074;BME280;64776;42.636;24.358;2023-07-28T01:18:12;90192.25;;;9.59;75.62
76074;BME280;64776;42.636;24.358;2023-07-28T01:21:21;90196.44;;;9.65;75.43
76074;BME280;64776;42.636;24.358;2023-07-28T01:24:32;90188.72;;;9.67;75.10
76074;BME280;64776;42.636;24.358;2023-07-28T01:27:38;90188.22;;;9.83;74.63
76074;BME280;64776;42.636;24.358;2023-07-28T01:30:40;90187.41;;;9.98;73.57
76074;BME280;64776;42.636;24.358;2023-07-28T01:33:41;90195.94;;;10.02;74.08
76074;BME280;64776;42.636;24.358;2023-07-28T01:36:41;90194.38;;;10.10;73.96
76074;BME280;64776;42.636;24.358;2023-07-28T01:39:42;90192.00;;;10.12;74.09
76074;BME280;64776;42.636;24.358;2023-07-28T01:42:44;90186.25;;;10.19;72.97
76074;BME280;64776;42.636;24.358;2023-07-28T01:45:45;90189.72;;;10.25;72.70
76074;BME280;64776;42.636;24.358;2023-07-28T01:48:46;90189.50;;;10.28;72.62
76074;BME280;64776;42.636;24.358;2023-07-28T01:51:47;90188.38;;;10.35;72.98
76074;BME280;64776;42.636;24.358;2023-07-28T01:54:48;90178.06;;;10.42;72.36
76074;BME280;64776;42.636;24.358;2023-07-28T01:57:56;90178.75;;;10.43;72.44
76074;BME280;64776;42.636;24.358;2023-07-28T02:00:57;90188.78;;;10.48;71.79
76074;BME280;64776;42.636;24.358;2023-07-28T02:03:58;90189.81;;;10.56;72.06
76074;BME280;64776;42.636;24.358;2023-07-28T02:06:58;90191.31;;;10.57;72.13
76074;BME280;64776;42.636;24.358;2023-07-28T02:09:59;90198.88;;;10.64;71.05
76074;BME280;64776;42.636;24.358;2023-07-28T02:13:01;90201.38;;;10.47;70.94
76074;BME280;64776;42.636;24.358;2023-07-28T02:16:02;90207.56;;;10.59;70.78
76074;BME280;64776;42.636;24.358;2023-07-28T02:19:03;90199.41;;;10.68;69.53
76074;BME280;64776;42.636;24.358;2023-07-28T02:22:04;90196.59;;;10.77;70.68
76074;BME280;64776;42.636;24.358;2023-07-28T02:25:06;90201.06;;;10.65;71.20
76074;BME280;64776;42.636;24.358;2023-07-28T02:28:10;90197.78;;;10.50;70.63
76074;BME280;64776;42.636;24.358;2023-07-28T02:31:12;90198.78;;;10.53;70.58
76074;BME280;64776;42.636;24.358;2023-07-28T02:34:13;90194.25;;;10.39;72.20
76074;BME280;64776;42.636;24.358;2023-07-28T02:37:14;90195.06;;;10.25;72.24
76074;BME280;64776;42.636;24.358;2023-07-28T02:40:15;90203.38;;;10.12;72.81
76074;BME280;64776;42.636;24.358;2023-07-28T02:43:17;90205.97;;;10.07;72.64
76074;BME280;64776;42.636;24.358;2023-07-28T02:46:18;90213.53;;;9.94;72.39
76074;BME280;64776;42.636;24.358;2023-07-28T02:49:19;90214.84;;;9.83;72.37
76074;BME280;64776;42.636;24.358;2023-07-28T02:52:19;90212.50;;;9.71;73.02
76074;BME280;64776;42.636;24.358;2023-07-28T02:55:20;90212.22;;;9.69;72.91
76074;BME280;64776;42.636;24.358;2023-07-28T02:58:24;90213.22;;;9.51;73.88
76074;BME280;64776;42.636;24.358;2023-07-28T03:01:25;90215.09;;;9.65;73.62
76074;BME280;64776;42.636;24.358;2023-07-28T03:04:25;90219.97;;;9.87;72.69
76074;BME280;64776;42.636;24.358;2023-07-28T03:07:27;90218.72;;;9.82;72.53
76074;BME280;64776;42.636;24.358;2023-07-28T03:10:28;90217.25;;;9.81;73.24
76074;BME280;64776;42.636;24.358;2023-07-28T03:13:30;90215.44;;;9.73;72.60
76074;BME280;64776;42.636;24.358;2023-07-28T03:16:31;90219.50;;;9.68;72.61
76074;BME280;64776;42.636;24.358;2023-07-28T03:19:32;90224.34;;;9.35;73.63
76074;BME280;64776;42.636;24.358;2023-07-28T03:22:32;90233.34;;;9.23;74.39
76074;BME280;64776;42.636;24.358;2023-07-28T03:25:33;90232.44;;;9.12;74.42
76074;BME280;64776;42.636;24.358;2023-07-28T03:28:36;90233.97;;;8.89;74.76
76074;BME280;64776;42.636;24.358;2023-07-28T03:31:36;90241.22;;;8.74;75.73
76074;BME280;64776;42.636;24.358;2023-07-28T03:34:37;90248.03;;;8.89;75.31
76074;BME280;64776;42.636;24.358;2023-07-28T03:37:38;90247.47;;;8.85;74.87
76074;BME280;64776;42.636;24.358;2023-07-28T03:40:39;90256.72;;;8.61;74.76
76074;BME280;64776;42.636;24.358;2023-07-28T03:43:41;90261.91;;;8.55;76.65
76074;BME280;64776;42.636;24.358;2023-07-28T03:46:42;90256.00;;;8.75;75.37
76074;BME280;64776;42.636;24.358;2023-07-28T03:49:43;90262.69;;;8.85;75.31
76074;BME280;64776;42.636;24.358;2023-07-28T03:52:43;90260.66;;;8.65;75.95
76074;BME280;64776;42.636;24.358;2023-07-28T03:55:44;90263.97;;;8.75;75.28
76074;BME280;64776;42.636;24.358;2023-07-28T03:58:46;90265.97;;;8.80;74.37
76074;BME280;64776;42.636;24.358;2023-07-28T04:01:47;90264.81;;;8.81;74.92
76074;BME280;64776;42.636;24.358;2023-07-28T04:04:53;90271.56;;;8.67;75.15
76074;BME280;64776;42.636;24.358;2023-07-28T04:07:54;90260.94;;;8.67;75.25
76074;BME280;64776;42.636;24.358;2023-07-28T04:10:55;90274.25;;;8.67;75.64
76074;BME280;64776;42.636;24.358;2023-07-28T04:13:57;90266.63;;;8.75;74.62
76074;BME280;64776;42.636;24.358;2023-07-28T04:16:58;90270.75;;;8.76;75.58
76074;BME280;64776;42.636;24.358;2023-07-28T04:20:24;90272.78;;;8.81;75.20
76074;BME280;64776;42.636;24.358;2023-07-28T04:23:25;90281.81;;;8.98;74.32
76074;BME280;64776;42.636;24.358;2023-07-28T04:26:25;90280.16;;;9.15;74.49
76074;BME280;64776;42.636;24.358;2023-07-28T04:29:28;90275.28;;;9.28;73.51
76074;BME280;64776;42.636;24.358;2023-07-28T04:32:29;90280.69;;;9.48;73.06
76074;BME280;64776;42.636;24.358;2023-07-28T04:35:30;90284.91;;;9.55;72.29
76074;BME280;64776;42.636;24.358;2023-07-28T04:38:31;90282.88;;;9.64;72.19
76074;BME280;64776;42.636;24.358;2023-07-28T04:41:32;90285.09;;;9.80;72.23
76074;BME280;64776;42.636;24.358;2023-07-28T04:44:34;90281.66;;;9.95;71.98
76074;BME280;64776;42.636;24.358;2023-07-28T04:47:35;90285.00;;;10.10;71.51
76074;BME280;64776;42.636;24.358;2023-07-28T04:50:35;90281.69;;;10.15;71.90
76074;BME280;64776;42.636;24.358;2023-07-28T04:53:36;90287.72;;;10.30;70.60
76074;BME280;64776;42.636;24.358;2023-07-28T04:56:37;90281.88;;;10.46;70.08
76074;BME280;64776;42.636;24.358;2023-07-28T04:59:39;90290.81;;;10.63;69.46
76074;BME280;64776;42.636;24.358;2023-07-28T05:02:40;90287.34;;;10.77;68.84
76074;BME280;64776;42.636;24.358;2023-07-28T05:05:43;90281.19;;;10.91;68.30
76074;BME280;64776;42.636;24.358;2023-07-28T05:08:44;90285.56;;;10.94;67.46
76074;BME280;64776;42.636;24.358;2023-07-28T05:11:44;90288.75;;;11.18;67.11
76074;BME280;64776;42.636;24.358;2023-07-28T05:14:47;90286.94;;;11.35;66.50
76074;BME280;64776;42.636;24.358;2023-07-28T05:17:48;90293.66;;;11.51;66.99
76074;BME280;64776;42.636;24.358;2023-07-28T05:20:49;90288.88;;;11.86;66.25
76074;BME280;64776;42.636;24.358;2023-07-28T05:23:53;90292.50;;;12.20;66.02
76074;BME280;64776;42.636;24.358;2023-07-28T05:26:54;90293.66;;;12.50;64.45
76074;BME280;64776;42.636;24.358;2023-07-28T05:29:56;90295.16;;;12.62;63.46
76074;BME280;64776;42.636;24.358;2023-07-28T05:32:57;90291.84;;;12.84;63.00
76074;BME280;64776;42.636;24.358;2023-07-28T05:36:02;90295.31;;;12.95;61.24
76074;BME280;64776;42.636;24.358;2023-07-28T05:39:03;90292.47;;;13.16;61.84
76074;BME280;64776;42.636;24.358;2023-07-28T05:42:04;90293.28;;;13.49;61.71
76074;BME280;64776;42.636;24.358;2023-07-28T05:45:07;90296.47;;;13.81;59.35
76074;BME280;64776;42.636;24.358;2023-07-28T05:48:09;90286.25;;;14.07;58.07
76074;BME280;64776;42.636;24.358;2023-07-28T05:51:10;90287.91;;;14.27;57.25
76074;BME280;64776;42.636;24.358;2023-07-28T05:54:11;90298.41;;;14.41;56.99
76074;BME280;64776;42.636;24.358;2023-07-28T05:57:12;90292.03;;;14.66;55.65
76074;BME280;64776;42.636;24.358;2023-07-28T06:00:15;90291.94;;;14.89;53.65
76074;BME280;64776;42.636;24.358;2023-07-28T06:03:16;90298.47;;;15.10;53.60
76074;BME280;64776;42.636;24.358;2023-07-28T06:06:17;90288.31;;;15.38;53.08
76074;BME280;64776;42.636;24.358;2023-07-28T06:09:17;90295.97;;;15.69;50.16
76074;BME280;64776;42.636;24.358;2023-07-28T06:12:18;90294.56;;;15.98;49.76
76074;BME280;64776;42.636;24.358;2023-07-28T06:15:20;90293.66;;;16.19;48.06
76074;BME280;64776;42.636;24.358;2023-07-28T06:18:21;90280.22;;;16.44;46.34
76074;BME280;64776;42.636;24.358;2023-07-28T06:21:22;90288.13;;;16.66;47.45
76074;BME280;64776;42.636;24.358;2023-07-28T06:24:23;90282.47;;;16.88;45.22
76074;BME280;64776;42.636;24.358;2023-07-28T06:27:24;90286.41;;;17.11;45.09
76074;BME280;64776;42.636;24.358;2023-07-28T06:30:26;90286.13;;;17.33;45.13
76074;BME280;64776;42.636;24.358;2023-07-28T06:33:28;90286.44;;;17.48;44.80
76074;BME280;64776;42.636;24.358;2023-07-28T06:36:30;90288.38;;;17.48;43.66
76074;BME280;64776;42.636;24.358;2023-07-28T06:39:31;90291.56;;;17.52;44.38
76074;BME280;64776;42.636;24.358;2023-07-28T06:42:32;90290.00;;;17.75;43.88
76074;BME280;64776;42.636;24.358;2023-07-28T06:45:35;90278.97;;;17.92;42.84
76074;BME280;64776;42.636;24.358;2023-07-28T06:48:37;90269.03;;;18.00;43.63
76074;BME280;64776;42.636;24.358;2023-07-28T06:51:38;90270.63;;;18.08;42.65
76074;BME280;64776;42.636;24.358;2023-07-28T06:54:39;90277.44;;;18.28;42.15
76074;BME280;64776;42.636;24.358;2023-07-28T06:57:40;90280.91;;;18.41;41.38
76074;BME280;64776;42.636;24.358;2023-07-28T07:00:42;90282.53;;;18.31;40.68
76074;BME280;64776;42.636;24.358;2023-07-28T07:03:43;90285.88;;;18.37;41.56
76074;BME280;64776;42.636;24.358;2023-07-28T07:06:44;90281.81;;;18.31;39.66
76074;BME280;64776;42.636;24.358;2023-07-28T07:09:44;90281.56;;;18.47;41.33
76074;BME280;64776;42.636;24.358;2023-07-28T07:12:45;90276.41;;;18.76;40.16
76074;BME280;64776;42.636;24.358;2023-07-28T07:15:47;90278.19;;;18.99;39.45
76074;BME280;64776;42.636;24.358;2023-07-28T07:18:48;90283.59;;;18.73;38.85
76074;BME280;64776;42.636;24.358;2023-07-28T07:21:51;90281.81;;;18.89;37.83
76074;BME280;64776;42.636;24.358;2023-07-28T07:24:52;90293.34;;;19.02;36.64
76074;BME280;64776;42.636;24.358;2023-07-28T07:27:53;90285.88;;;19.08;37.35
76074;BME280;64776;42.636;24.358;2023-07-28T07:30:55;90290.13;;;19.30;38.42
76074;BME280;64776;42.636;24.358;2023-07-28T07:33:56;90283.78;;;19.54;38.07
76074;BME280;64776;42.636;24.358;2023-07-28T07:36:57;90285.53;;;19.64;37.92
76074;BME280;64776;42.636;24.358;2023-07-28T07:39:57;90280.88;;;19.85;37.67
76074;BME280;64776;42.636;24.358;2023-07-28T07:42:58;90279.31;;;20.23;36.22
76074;BME280;64776;42.636;24.358;2023-07-28T07:46:00;90279.56;;;20.54;36.63
76074;BME280;64776;42.636;24.358;2023-07-28T07:49:03;90289.44;;;20.64;36.30
76074;BME280;64776;42.636;24.358;2023-07-28T07:52:06;90285.56;;;20.80;35.72
76074;BME280;64776;42.636;24.358;2023-07-28T07:55:10;90297.03;;;20.94;35.41
76074;BME280;64776;42.636;24.358;2023-07-28T07:58:10;90294.00;;;20.97;35.21
76074;BME280;64776;42.636;24.358;2023-07-28T08:01:13;90293.66;;;21.01;34.14
76074;BME280;64776;42.636;24.358;2023-07-28T08:04:13;90295.97;;;21.18;35.65
76074;BME280;64776;42.636;24.358;2023-07-28T08:07:14;90295.50;;;21.27;35.13
76074;BME280;64776;42.636;24.358;2023-07-28T08:10:15;90291.59;;;21.15;34.96
76074;BME280;64776;42.636;24.358;2023-07-28T08:13:16;90291.59;;;21.15;34.48
76074;BME280;64776;42.636;24.358;2023-07-28T08:16:18;90289.84;;;21.25;33.70
76074;BME280;64776;42.636;24.358;2023-07-28T08:19:19;90291.78;;;20.88;33.53
76074;BME280;64776;42.636;24.358;2023-07-28T08:22:20;90295.78;;;21.16;32.77
76074;BME280;64776;42.636;24.358;2023-07-28T08:25:22;90291.56;;;21.07;33.20
76074;BME280;64776;42.636;24.358;2023-07-28T08:28:23;90287.53;;;21.29;32.88
76074;BME280;64776;42.636;24.358;2023-07-28T08:31:50;90295.75;;;21.44;30.90
76074;BME280;64776;42.636;24.358;2023-07-28T08:34:51;90300.88;;;21.55;31.17
76074;BME280;64776;42.636;24.358;2023-07-28T08:37:51;90288.91;;;21.86;29.41
76074;BME280;64776;42.636;24.358;2023-07-28T08:40:52;90297.34;;;22.18;27.53
76074;BME280;64776;42.636;24.358;2023-07-28T08:43:53;90296.41;;;22.08;25.77
76074;BME280;64776;42.636;24.358;2023-07-28T08:46:55;90291.03;;;22.31;25.04
76074;BME280;64776;42.636;24.358;2023-07-28T08:49:56;90295.22;;;22.47;24.07
76074;BME280;64776;42.636;24.358;2023-07-28T08:52:57;90290.00;;;22.64;24.41
76074;BME280;64776;42.636;24.358;2023-07-28T08:55:58;90289.44;;;22.65;23.97
76074;BME280;64776;42.636;24.358;2023-07-28T08:58:59;90283.13;;;22.71;22.65
76074;BME280;64776;42.636;24.358;2023-07-28T09:02:01;90290.00;;;22.64;23.59
76074;BME280;64776;42.636;24.358;2023-07-28T09:05:03;90285.28;;;22.87;24.96
76074;BME280;64776;42.636;24.358;2023-07-28T09:08:04;90282.03;;;23.04;25.39
76074;BME280;64776;42.636;24.358;2023-07-28T09:11:05;90286.38;;;22.84;24.18
76074;BME280;64776;42.636;24.358;2023-07-28T09:14:11;90277.28;;;23.04;25.07
76074;BME280;64776;42.636;24.358;2023-07-28T09:17:13;90270.41;;;23.03;25.56
76074;BME280;64776;42.636;24.358;2023-07-28T09:20:14;90278.34;;;23.47;26.85
76074;BME280;64776;42.636;24.358;2023-07-28T09:23:17;90275.75;;;23.56;26.48
76074;BME280;64776;42.636;24.358;2023-07-28T09:26:17;90268.09;;;23.70;25.05
76074;BME280;64776;42.636;24.358;2023-07-28T09:29:19;90265.38;;;24.09;24.10
76074;BME280;64776;42.636;24.358;2023-07-28T09:32:29;90268.97;;;24.19;22.63
76074;BME280;64776;42.636;24.358;2023-07-28T09:35:30;90266.84;;;24.03;21.66
76074;BME280;64776;42.636;24.358;2023-07-28T09:38:31;90260.31;;;24.06;21.29
76074;BME280;64776;42.636;24.358;2023-07-28T09:41:34;90259.97;;;24.02;20.65
76074;BME280;64776;42.636;24.358;2023-07-28T09:44:35;90259.78;;;24.00;21.51
76074;BME280;64776;42.636;24.358;2023-07-28T09:47:38;90251.56;;;24.15;21.06
76074;BME280;64776;42.636;24.358;2023-07-28T09:50:40;90255.59;;;24.06;21.43
76074;BME280;64776;42.636;24.358;2023-07-28T09:53:46;90260.97;;;24.21;22.58
76074;BME280;64776;42.636;24.358;2023-07-28T09:56:49;90248.63;;;24.20;24.91
76074;BME280;64776;42.636;24.358;2023-07-28T09:59:52;90249.28;;;24.29;23.37
76074;BME280;64776;42.636;24.358;2023-07-28T10:02:56;90254.09;;;24.70;23.48
76074;BME280;64776;42.636;24.358;2023-07-28T10:05:59;90243.28;;;24.87;21.87
76074;BME280;64776;42.636;24.358;2023-07-28T10:09:00;90245.53;;;24.98;22.63
76074;BME280;64776;42.636;24.358;2023-07-28T10:12:01;90250.53;;;25.09;21.62
76074;BME280;64776;42.636;24.358;2023-07-28T10:15:03;90244.78;;;25.22;21.00
76074;BME280;64776;42.636;24.358;2023-07-28T10:18:07;90243.16;;;25.19;20.57
76074;BME280;64776;42.636;24.358;2023-07-28T10:21:08;90237.78;;;25.12;20.61
76074;BME280;64776;42.636;24.358;2023-07-28T10:24:09;90230.75;;;25.43;21.16
76074;BME280;64776;42.636;24.358;2023-07-28T10:27:10;90236.22;;;25.43;20.02
76074;BME280;64776;42.636;24.358;2023-07-28T10:30:14;90230.06;;;25.86;19.87
76074;BME280;64776;42.636;24.358;2023-07-28T10:33:28;90231.31;;;26.02;19.68
76074;BME280;64776;42.636;24.358;2023-07-28T10:36:33;90223.31;;;26.31;19.18
76074;BME280;64776;42.636;24.358;2023-07-28T10:39:34;90239.91;;;26.42;20.81
76074;BME280;64776;42.636;24.358;2023-07-28T10:42:35;90242.59;;;25.72;21.26
76074;BME280;64776;42.636;24.358;2023-07-28T10:45:36;90235.13;;;25.90;22.52
76074;BME280;64776;42.636;24.358;2023-07-28T10:48:41;90231.63;;;26.50;22.59
76074;BME280;64776;42.636;24.358;2023-07-28T10:51:42;90232.38;;;26.96;22.27
76074;BME280;64776;42.636;24.358;2023-07-28T10:54:43;90229.38;;;27.11;22.63
76074;BME280;64776;42.636;24.358;2023-07-28T10:57:45;90225.53;;;26.78;21.41
76074;BME280;64776;42.636;24.358;2023-07-28T11:00:46;90228.88;;;26.77;22.35
76074;BME280;64776;42.636;24.358;2023-07-28T11:03:48;90225.69;;;26.80;23.37
76074;BME280;64776;42.636;24.358;2023-07-28T11:06:50;90220.16;;;27.16;22.73
76074;BME280;64776;42.636;24.358;2023-07-28T11:09:51;90218.06;;;27.34;24.11
76074;BME280;64776;42.636;24.358;2023-07-28T11:12:52;90232.72;;;27.10;24.78
76074;BME280;64776;42.636;24.358;2023-07-28T11:15:53;90231.47;;;27.39;22.67
76074;BME280;64776;42.636;24.358;2023-07-28T11:19:00;90229.78;;;26.98;24.83
76074;BME280;64776;42.636;24.358;2023-07-28T11:22:01;90228.44;;;26.80;23.38
76074;BME280;64776;42.636;24.358;2023-07-28T11:25:02;90221.63;;;27.17;23.63
76074;BME280;64776;42.636;24.358;2023-07-28T11:28:06;90219.50;;;27.35;23.61
76074;BME280;64776;42.636;24.358;2023-07-28T11:31:33;90213.88;;;27.43;23.71
76074;BME280;64776;42.636;24.358;2023-07-28T11:34:36;90213.41;;;27.27;24.57
76074;BME280;64776;42.636;24.358;2023-07-28T11:37:38;90201.31;;;27.39;24.85
76074;BME280;64776;42.636;24.358;2023-07-28T11:40:40;90197.00;;;27.36;24.94
76074;BME280;64776;42.636;24.358;2023-07-28T11:43:41;90196.22;;;27.07;26.97
76074;BME280;64776;42.636;24.358;2023-07-28T11:46:42;90204.59;;;27.09;23.48
76074;BME280;64776;42.636;24.358;2023-07-28T11:49:47;90195.34;;;27.14;23.38
76074;BME280;64776;42.636;24.358;2023-07-28T11:52:48;90202.34;;;27.34;23.13
76074;BME280;64776;42.636;24.358;2023-07-28T11:55:49;90205.38;;;26.47;22.56
76074;BME280;64776;42.636;24.358;2023-07-28T11:58:50;90207.72;;;26.96;24.22
76074;BME280;64776;42.636;24.358;2023-07-28T12:01:56;90189.75;;;27.31;23.45
76074;BME280;64776;42.636;24.358;2023-07-28T12:04:58;90196.22;;;27.07;22.82
76074;BME280;64776;42.636;24.358;2023-07-28T12:07:59;90200.31;;;27.45;23.13
76074;BME280;64776;42.636;24.358;2023-07-28T12:11:00;90187.63;;;27.59;22.90
76074;BME280;64776;42.636;24.358;2023-07-28T12:14:00;90176.50;;;27.66;22.91
76074;BME280;64776;42.636;24.358;2023-07-28T12:17:01;90179.50;;;27.22;23.24
76074;BME280;64776;42.636;24.358;2023-07-28T12:20:05;90180.66;;;26.28;23.99
76074;BME280;64776;42.636;24.358;2023-07-28T12:23:07;90175.59;;;26.60;22.67
76074;BME280;64776;42.636;24.358;2023-07-28T12:26:08;90175.00;;;26.98;22.82
76074;BME280;64776;42.636;24.358;2023-07-28T12:29:09;90170.88;;;27.35;21.00
76074;BME280;64776;42.636;24.358;2023-07-28T12:32:10;90168.69;;;27.05;22.73
76074;BME280;64776;42.636;24.358;2023-07-28T12:35:12;90171.69;;;27.00;23.46
76074;BME280;64776;42.636;24.358;2023-07-28T12:38:13;90167.72;;;27.49;23.53
76074;BME280;64776;42.636;24.358;2023-07-28T12:41:13;90174.88;;;27.15;23.94
76074;BME280;64776;42.636;24.358;2023-07-28T12:44:14;90169.44;;;27.73;23.61
76074;BME280;64776;42.636;24.358;2023-07-28T12:47:15;90173.50;;;28.41;20.89
76074;BME280;64776;42.636;24.358;2023-07-28T12:50:17;90158.16;;;27.78;21.34
76074;BME280;64776;42.636;24.358;2023-07-28T12:53:18;90153.38;;;28.07;23.49
76074;BME280;64776;42.636;24.358;2023-07-28T12:56:19;90160.59;;;28.03;22.63
76074;BME280;64776;42.636;24.358;2023-07-28T12:59:22;90169.56;;;27.27;22.40
76074;BME280;64776;42.636;24.358;2023-07-28T13:02:22;90167.34;;;26.87;23.08
76074;BME280;64776;42.636;24.358;2023-07-28T13:05:24;90163.63;;;27.11;23.48
76074;BME280;64776;42.636;24.358;2023-07-28T13:08:25;90169.47;;;27.34;22.86
76074;BME280;64776;42.636;24.358;2023-07-28T13:11:26;90163.09;;;27.42;22.67
76074;BME280;64776;42.636;24.358;2023-07-28T13:14:27;90153.69;;;27.83;21.91
76074;BME280;64776;42.636;24.358;2023-07-28T13:17:28;90139.97;;;28.02;22.02
76074;BME280;64776;42.636;24.358;2023-07-28T13:20:30;90145.81;;;28.27;22.49
76074;BME280;64776;42.636;24.358;2023-07-28T13:23:31;90144.00;;;28.81;21.21
76074;BME280;64776;42.636;24.358;2023-07-28T13:26:31;90143.13;;;27.89;21.44
76074;BME280;64776;42.636;24.358;2023-07-28T13:29:32;90147.63;;;27.84;22.79
76074;BME280;64776;42.636;24.358;2023-07-28T13:32:33;90135.75;;;28.10;22.29
76074;BME280;64776;42.636;24.358;2023-07-28T13:35:35;90144.63;;;28.40;23.90
76074;BME280;64776;42.636;24.358;2023-07-28T13:38:36;90131.41;;;28.57;19.17
76074;BME280;64776;42.636;24.358;2023-07-28T13:41:37;90126.50;;;28.46;18.68
76074;BME280;64776;42.636;24.358;2023-07-28T13:44:38;90127.63;;;28.22;19.20
76074;BME280;64776;42.636;24.358;2023-07-28T13:47:39;90136.44;;;28.21;20.53
76074;BME280;64776;42.636;24.358;2023-07-28T13:50:41;90132.63;;;27.66;21.58
76074;BME280;64776;42.636;24.358;2023-07-28T13:53:42;90123.06;;;27.86;22.74
76074;BME280;64776;42.636;24.358;2023-07-28T13:56:43;90116.94;;;27.38;21.95
76074;BME280;64776;42.636;24.358;2023-07-28T13:59:44;90123.41;;;27.14;21.89
76074;BME280;64776;42.636;24.358;2023-07-28T14:02:45;90113.31;;;27.45;22.37
76074;BME280;64776;42.636;24.358;2023-07-28T14:05:47;90115.84;;;28.00;22.00
76074;BME280;64776;42.636;24.358;2023-07-28T14:08:48;90132.25;;;28.50;21.99
76074;BME280;64776;42.636;24.358;2023-07-28T14:11:48;90123.34;;;28.80;21.36
76074;BME280;64776;42.636;24.358;2023-07-28T14:14:49;90125.75;;;28.55;23.04
76074;BME280;64776;42.636;24.358;2023-07-28T14:17:50;90118.44;;;28.39;21.74
76074;BME280;64776;42.636;24.358;2023-07-28T14:20:52;90125.16;;;28.26;22.96
76074;BME280;64776;42.636;24.358;2023-07-28T14:23:53;90121.53;;;27.74;22.95
76074;BME280;64776;42.636;24.358;2023-07-28T14:26:53;90115.19;;;27.71;23.39
76074;BME280;64776;42.636;24.358;2023-07-28T14:29:54;90118.81;;;27.35;24.14
76074;BME280;64776;42.636;24.358;2023-07-28T14:32:55;90120.50;;;27.79;24.85
76074;BME280;64776;42.636;24.358;2023-07-28T14:35:57;90120.75;;;28.02;24.20
76074;BME280;64776;42.636;24.358;2023-07-28T14:38:58;90107.59;;;28.10;24.55
76074;BME280;64776;42.636;24.358;2023-07-28T14:41:59;90109.94;;;27.85;25.51
76074;BME280;64776;42.636;24.358;2023-07-28T14:44:59;90110.84;;;27.78;25.56
76074;BME280;64776;42.636;24.358;2023-07-28T14:48:01;90116.56;;;27.91;26.15
76074;BME280;64776;42.636;24.358;2023-07-28T14:51:03;90112.44;;;27.71;26.57
76074;BME280;64776;42.636;24.358;2023-07-28T14:54:04;90118.47;;;27.79;26.84
76074;BME280;64776;42.636;24.358;2023-07-28T14:57:05;90110.41;;;27.14;28.00
76074;BME280;64776;42.636;24.358;2023-07-28T15:00:07;90114.84;;;26.81;28.28
76074;BME280;64776;42.636;24.358;2023-07-28T15:03:08;90114.91;;;27.19;28.84
76074;BME280;64776;42.636;24.358;2023-07-28T15:06:10;90105.81;;;27.07;27.62
76074;BME280;64776;42.636;24.358;2023-07-28T15:09:11;90102.94;;;27.44;28.01
76074;BME280;64776;42.636;24.358;2023-07-28T15:12:11;90097.59;;;27.46;27.82
76074;BME280;64776;42.636;24.358;2023-07-28T15:15:12;90103.19;;;27.00;28.68
76074;BME280;64776;42.636;24.358;2023-07-28T15:18:13;90095.56;;;26.89;28.90
76074;BME280;64776;42.636;24.358;2023-07-28T15:21:15;90097.81;;;26.54;29.46
76074;BME280;64776;42.636;24.358;2023-07-28T15:24:16;90101.97;;;26.55;28.94
76074;BME280;64776;42.636;24.358;2023-07-28T15:27:17;90096.28;;;26.34;30.66
76074;BME280;64776;42.636;24.358;2023-07-28T15:30:17;90102.84;;;26.57;29.44
76074;BME280;64776;42.636;24.358;2023-07-28T15:33:19;90110.03;;;26.07;30.51
76074;BME280;64776;42.636;24.358;2023-07-28T15:36:21;90111.63;;;25.83;30.78
76074;BME280;64776;42.636;24.358;2023-07-28T15:39:22;90115.03;;;25.74;31.78
76074;BME280;64776;42.636;24.358;2023-07-28T15:42:23;90107.34;;;26.17;31.23
76074;BME280;64776;42.636;24.358;2023-07-28T15:45:24;90111.00;;;25.75;31.52
76074;BME280;64776;42.636;24.358;2023-07-28T15:48:24;90104.69;;;25.82;31.39
76074;BME280;64776;42.636;24.358;2023-07-28T15:51:27;90106.41;;;26.05;31.68
76074;BME280;64776;42.636;24.358;2023-07-28T15:54:28;90106.56;;;26.43;31.16
76074;BME280;64776;42.636;24.358;2023-07-28T15:57:29;90104.34;;;26.32;30.92